createdAt,value
2018-05-27T00:05:02.229Z,5.40
2018-05-27T00:07:28.522Z,4.80
2018-05-27T00:09:54.733Z,4.80
2018-05-27T00:12:20.956Z,5.27
2018-05-27T00:14:47.158Z,5.10
2018-05-27T00:17:13.358Z,4.77
2018-05-27T00:19:39.589Z,4.57
2018-05-27T00:25:03.499Z,6.40
2018-05-27T00:27:29.704Z,6.87
2018-05-27T00:29:55.935Z,5.57
2018-05-27T00:32:22.184Z,6.30
2018-05-27T00:34:48.388Z,6.50
2018-05-27T00:37:14.625Z,5.70
2018-05-27T00:39:40.884Z,6.10
2018-05-27T00:42:07.898Z,6.57
2018-05-27T00:44:34.135Z,5.70
2018-05-27T00:47:00.385Z,5.83
2018-05-27T00:49:27.333Z,5.90
2018-05-27T00:51:53.616Z,6.00
2018-05-27T00:54:19.886Z,5.87
2018-05-27T00:56:46.913Z,6.53
2018-05-27T00:59:13.925Z,6.43
2018-05-27T01:01:40.192Z,6.50
2018-05-27T01:04:06.410Z,6.10
2018-05-27T01:06:32.642Z,6.30
2018-05-27T01:08:58.859Z,6.60
2018-05-27T01:11:25.074Z,6.50
2018-05-27T01:13:51.339Z,5.83
2018-05-27T01:16:18.288Z,6.30
2018-05-27T01:18:45.272Z,5.70
2018-05-27T01:21:11.539Z,6.80
2018-05-27T01:23:37.776Z,7.83
2018-05-27T01:26:04.081Z,6.70
2018-05-27T01:28:30.357Z,6.50
2018-05-27T01:30:57.312Z,6.70
2018-05-27T01:33:23.604Z,7.43
2018-05-27T01:35:49.844Z,8.33
2018-05-27T01:38:16.090Z,8.20
2018-05-27T01:40:56.000Z,8.03
2018-05-27T01:43:22.236Z,8.50
2018-05-27T01:45:48.446Z,7.67
2018-05-27T01:48:14.667Z,7.20
2018-05-27T01:50:40.903Z,7.23
2018-05-27T01:53:07.175Z,6.30
2018-05-27T01:55:34.195Z,7.00
2018-05-27T01:58:00.441Z,7.93
2018-05-27T02:00:26.627Z,7.10
2018-05-27T02:02:52.840Z,7.60
2018-05-27T02:05:19.123Z,7.47
2018-05-27T02:07:46.134Z,6.47
2018-05-27T02:10:12.336Z,6.93
2018-05-27T02:12:38.582Z,7.70
2018-05-27T02:15:04.845Z,7.30
2018-05-27T02:17:31.824Z,6.83
2018-05-27T02:19:58.058Z,8.20
2018-05-27T02:22:24.357Z,7.00
2018-05-27T02:24:50.590Z,6.87
2018-05-27T02:27:16.768Z,6.73
2018-05-27T02:29:42.965Z,7.20
2018-05-27T02:32:09.923Z,7.30
2018-05-27T02:34:36.180Z,7.50
2018-05-27T02:37:02.435Z,7.40
2018-05-27T02:39:28.666Z,7.03
2018-05-27T02:41:54.922Z,7.80
2018-05-27T02:44:21.169Z,7.13
2018-05-27T02:46:47.390Z,7.10
2018-05-27T02:49:13.643Z,7.13
2018-05-27T02:51:39.963Z,6.10
2018-05-27T02:54:06.163Z,6.20
2018-05-27T02:56:33.118Z,6.57
2018-05-27T02:58:59.336Z,9.30
2018-05-27T03:01:26.314Z,8.00
2018-05-27T03:03:52.573Z,8.17
2018-05-27T03:06:18.791Z,8.50
2018-05-27T03:09:05.767Z,8.67
2018-05-27T03:11:31.998Z,7.77
2018-05-27T03:13:58.229Z,7.37
2018-05-27T03:16:24.459Z,7.80
2018-05-27T03:18:50.688Z,6.17
2018-05-27T03:21:17.747Z,7.13
2018-05-27T03:23:44.006Z,6.07
2018-05-27T03:26:10.248Z,6.50
2018-05-27T03:28:37.247Z,6.47
2018-05-27T03:31:03.502Z,5.80
2018-05-27T03:33:29.745Z,6.67
2018-05-27T03:35:55.961Z,6.57
2018-05-27T03:38:22.217Z,6.57
2018-05-27T03:40:48.433Z,6.10
2018-05-27T03:43:14.674Z,5.93
2018-05-27T03:45:41.656Z,6.40
2018-05-27T03:48:07.902Z,6.30
2018-05-27T03:50:34.118Z,6.43
2018-05-27T03:53:00.392Z,6.80
2018-05-27T03:55:26.634Z,6.43
2018-05-27T03:57:53.645Z,6.60
2018-05-27T04:00:19.869Z,6.20
2018-05-27T04:02:46.142Z,6.40
2018-05-27T04:05:25.290Z,6.83
2018-05-27T04:08:13.461Z,6.77
2018-05-27T04:10:39.667Z,6.30
2018-05-27T04:13:05.918Z,6.27
2018-05-27T04:15:32.202Z,5.83
2018-05-27T04:17:59.158Z,6.70
2018-05-27T04:20:26.074Z,6.50
2018-05-27T04:22:52.316Z,7.07
2018-05-27T04:25:19.295Z,5.73
2018-05-27T04:27:45.478Z,6.90
2018-05-27T04:30:11.695Z,6.17
2018-05-27T04:32:37.933Z,7.00
2018-05-27T04:35:04.168Z,7.83
2018-05-27T04:37:30.385Z,7.20
2018-05-27T04:39:56.585Z,7.17
2018-05-27T04:42:22.817Z,7.10
2018-05-27T04:44:49.013Z,7.03
2018-05-27T04:47:15.281Z,7.20
2018-05-27T04:49:41.501Z,8.00
2018-05-27T04:52:07.684Z,6.70
2018-05-27T04:54:33.894Z,6.77
2018-05-27T04:57:00.899Z,7.63
2018-05-27T04:59:27.087Z,6.70
2018-05-27T05:01:53.348Z,6.70
2018-05-27T05:04:19.549Z,6.07
2018-05-27T05:06:45.815Z,6.20
2018-05-27T05:09:12.024Z,6.07
2018-05-27T05:11:38.235Z,6.63
2018-05-27T05:14:04.497Z,6.60
2018-05-27T05:16:30.729Z,7.20
2018-05-27T05:18:56.970Z,8.30
2018-05-27T05:21:23.207Z,6.30
2018-05-27T05:23:49.495Z,6.10
2018-05-27T05:26:21.193Z,6.57
2018-05-27T05:28:47.390Z,6.60
2018-05-27T05:31:13.572Z,6.40
2018-05-27T05:33:40.509Z,6.97
2018-05-27T05:36:07.470Z,6.70
2018-05-27T05:38:34.447Z,7.37
2018-05-27T05:41:00.678Z,7.30
2018-05-27T05:43:26.921Z,7.20
2018-05-27T05:45:53.125Z,6.90
2018-05-27T05:48:20.428Z,7.83
2018-05-27T05:50:46.604Z,7.23
2018-05-27T05:53:12.816Z,6.20
2018-05-27T05:55:39.055Z,6.97
2018-05-27T05:58:05.299Z,7.40
2018-05-27T06:00:31.509Z,7.93
2018-05-27T06:02:57.765Z,8.10
2018-05-27T06:05:23.970Z,8.27
2018-05-27T06:07:50.134Z,8.37
2018-05-27T06:10:17.373Z,8.20
2018-05-27T06:12:43.596Z,9.13
2018-05-27T06:15:09.809Z,9.50
2018-05-27T06:17:36.028Z,10.73
2018-05-27T06:20:02.281Z,9.93
2018-05-27T06:22:28.477Z,10.90
2018-05-27T06:24:54.687Z,11.20
2018-05-27T06:27:20.923Z,11.03
2018-05-27T06:29:47.160Z,10.23
2018-05-27T06:32:13.388Z,10.93
2018-05-27T06:34:39.625Z,10.17
2018-05-27T06:37:05.855Z,11.10
2018-05-27T06:39:32.094Z,10.07
2018-05-27T06:41:58.316Z,8.00
2018-05-27T06:44:24.522Z,6.60
2018-05-27T06:46:50.770Z,6.83
2018-05-27T06:49:17.028Z,7.87
2018-05-27T06:51:43.265Z,7.33
2018-05-27T06:54:09.487Z,8.17
2018-05-27T06:56:35.690Z,9.17
2018-05-27T06:59:01.917Z,7.50
2018-05-27T07:01:28.109Z,7.77
2018-05-27T07:03:54.304Z,8.83
2018-05-27T07:06:20.537Z,8.50
2018-05-27T07:08:47.522Z,10.20
2018-05-27T07:11:13.777Z,10.87
2018-05-27T07:13:39.998Z,10.80
2018-05-27T07:16:22.106Z,11.77
2018-05-27T07:18:48.326Z,11.30
2018-05-27T07:21:14.598Z,12.73
2018-05-27T07:23:40.853Z,11.87
2018-05-27T07:26:07.081Z,11.50
2018-05-27T07:28:33.322Z,12.00
2018-05-27T07:30:59.523Z,11.73
2018-05-27T07:33:32.298Z,10.27
2018-05-27T07:35:59.276Z,11.17
2018-05-27T07:38:25.536Z,10.40
2018-05-27T07:40:51.751Z,11.20
2018-05-27T07:43:18.005Z,13.77
2018-05-27T07:45:44.218Z,12.00
2018-05-27T07:48:10.440Z,12.80
2018-05-27T07:50:36.699Z,11.43
2018-05-27T07:53:02.936Z,11.73
2018-05-27T07:55:29.166Z,10.40
2018-05-27T07:57:56.206Z,9.23
2018-05-27T08:00:22.473Z,9.57
2018-05-27T08:02:48.756Z,9.10
2018-05-27T08:05:14.994Z,8.83
2018-05-27T08:07:41.995Z,9.07
2018-05-27T08:13:26.553Z,10.20
2018-05-27T08:15:52.755Z,9.53
2018-05-27T08:18:18.968Z,8.90
2018-05-27T08:20:45.180Z,9.50
2018-05-27T08:23:11.429Z,9.37
2018-05-27T08:25:37.649Z,7.80
2018-05-27T08:28:03.846Z,8.90
2018-05-27T08:30:30.090Z,8.57
2018-05-27T08:32:56.379Z,9.17
2018-05-27T08:35:22.625Z,8.70
2018-05-27T08:37:54.670Z,8.40
2018-05-27T08:40:20.928Z,8.20
2018-05-27T08:42:47.206Z,8.20
2018-05-27T08:45:14.301Z,9.57
2018-05-27T08:47:40.574Z,8.20
2018-05-27T08:50:07.574Z,7.20
2018-05-27T08:52:34.064Z,7.37
2018-05-27T08:55:01.085Z,7.60
2018-05-27T08:57:27.308Z,7.17
2018-05-27T08:59:53.754Z,7.50
2018-05-27T09:02:20.926Z,6.80
2018-05-27T09:04:47.389Z,6.87
2018-05-27T09:07:13.685Z,7.07
2018-05-27T09:09:40.797Z,6.50
2018-05-27T09:12:07.856Z,7.43
2018-05-27T09:14:34.118Z,7.47
2018-05-27T09:17:00.442Z,6.67
2018-05-27T09:19:27.446Z,6.87
2018-05-27T09:22:01.683Z,7.27
2018-05-27T09:24:27.873Z,7.30
2018-05-27T09:27:20.931Z,6.43
2018-05-27T09:29:51.828Z,6.77
2018-05-27T09:32:18.969Z,5.90
2018-05-27T09:34:47.613Z,5.77
2018-05-27T09:37:13.893Z,6.77
2018-05-27T09:39:40.863Z,6.70
2018-05-27T09:42:07.078Z,7.50
2018-05-27T09:44:33.311Z,6.03
2018-05-27T09:46:59.614Z,5.83
2018-05-27T09:49:26.611Z,6.37
2018-05-27T09:51:52.822Z,6.10
2018-05-27T09:54:20.312Z,6.13
2018-05-27T09:56:46.591Z,6.63
2018-05-27T09:59:26.153Z,6.63
2018-05-27T10:01:52.387Z,5.67
2018-05-27T10:04:18.612Z,6.17
2018-05-27T10:06:44.930Z,6.30
2018-05-27T10:09:11.333Z,6.47
2018-05-27T10:14:56.348Z,5.47
2018-05-27T10:17:40.010Z,5.50
2018-05-27T10:20:16.820Z,6.13
2018-05-27T10:22:44.089Z,6.30
2018-05-27T10:25:11.066Z,5.90
2018-05-27T10:27:37.327Z,5.63
2018-05-27T10:30:03.562Z,6.30
2018-05-27T10:32:29.844Z,6.00
2018-05-27T10:34:56.108Z,6.50
2018-05-27T10:37:22.331Z,5.30
2018-05-27T10:39:48.589Z,5.53
2018-05-27T10:42:14.838Z,5.90
2018-05-27T10:44:41.773Z,6.30
2018-05-27T10:47:08.760Z,6.60
2018-05-27T10:49:34.930Z,6.97
2018-05-27T10:52:01.162Z,5.80
2018-05-27T10:54:27.409Z,4.80
2018-05-27T10:56:54.409Z,5.73
2018-05-27T10:59:20.641Z,5.60
2018-05-27T11:01:59.749Z,6.37
2018-05-27T11:07:23.474Z,5.93
2018-05-27T11:09:49.727Z,6.53
2018-05-27T11:12:16.713Z,5.93
2018-05-27T11:14:42.960Z,5.80
2018-05-27T11:17:09.164Z,5.03
2018-05-27T11:19:35.467Z,5.53
2018-05-27T11:22:05.624Z,5.47
2018-05-27T11:24:32.017Z,5.50
2018-05-27T11:26:58.248Z,5.73
2018-05-27T11:29:25.945Z,5.20
2018-05-27T11:31:55.239Z,5.87
2018-05-27T11:34:21.699Z,5.80
2018-05-27T11:40:05.448Z,5.10
2018-05-27T11:42:31.805Z,5.03
2018-05-27T11:44:57.993Z,4.73
2018-05-27T11:47:27.643Z,4.73
2018-05-27T11:49:54.648Z,5.33
2018-05-27T11:52:47.083Z,5.87
2018-05-27T11:55:13.405Z,5.13
2018-05-27T11:57:43.174Z,5.37
2018-05-27T12:00:14.767Z,6.40
2018-05-27T12:02:53.042Z,6.80
2018-05-27T12:05:42.131Z,6.20
2018-05-27T12:14:04.310Z,6.83
2018-05-27T12:19:35.174Z,7.77
2018-05-27T12:25:14.958Z,7.20
2018-05-27T12:27:57.125Z,6.57
2018-05-27T12:30:25.511Z,7.00
2018-05-27T12:35:48.197Z,7.23
2018-05-27T12:38:14.444Z,8.03
2018-05-27T12:40:40.712Z,8.63
2018-05-27T12:43:07.717Z,7.90
2018-05-27T12:45:34.002Z,8.17
2018-05-27T12:48:00.212Z,7.40
2018-05-27T12:50:27.209Z,7.70
2018-05-27T12:52:53.481Z,6.83
2018-05-27T12:55:19.710Z,8.27
2018-05-27T12:57:45.891Z,7.33
2018-05-27T13:00:12.144Z,6.47
2018-05-27T13:02:38.404Z,7.90
2018-05-27T13:05:06.483Z,6.00
2018-05-27T13:07:33.488Z,6.97
2018-05-27T13:09:59.717Z,6.70
2018-05-27T13:12:25.941Z,6.93
2018-05-27T13:14:52.179Z,7.13
2018-05-27T13:17:18.433Z,6.50
2018-05-27T13:19:45.419Z,7.07
2018-05-27T13:22:11.625Z,6.90
2018-05-27T13:24:37.863Z,6.23
2018-05-27T13:27:04.080Z,6.20
2018-05-27T13:29:31.407Z,7.47
2018-05-27T13:31:57.632Z,7.10
2018-05-27T13:34:23.850Z,7.30
2018-05-27T13:36:50.132Z,6.57
2018-05-27T13:39:16.367Z,6.30
2018-05-27T13:41:42.604Z,6.70
2018-05-27T13:44:08.799Z,7.20
2018-05-27T13:46:35.780Z,7.10
2018-05-27T13:49:02.075Z,7.33
2018-05-27T13:51:28.341Z,8.03
2018-05-27T13:53:54.575Z,6.80
2018-05-27T13:56:20.844Z,6.70
2018-05-27T13:58:47.065Z,6.10
2018-05-27T14:01:13.310Z,6.00
2018-05-27T14:03:39.586Z,6.00
2018-05-27T14:06:05.926Z,6.97
2018-05-27T14:08:32.164Z,6.30
2018-05-27T14:10:58.422Z,6.27
2018-05-27T14:13:25.464Z,6.00
2018-05-27T14:15:52.503Z,5.43
2018-05-27T14:18:19.546Z,6.13
2018-05-27T14:20:45.792Z,6.40
2018-05-27T14:23:12.915Z,5.90
2018-05-27T14:25:39.116Z,6.00
2018-05-27T14:28:05.449Z,5.50
2018-05-27T14:30:31.816Z,5.10
2018-05-27T14:32:58.834Z,4.73
2018-05-27T14:35:25.100Z,4.40
2018-05-27T14:37:51.917Z,4.20
2018-05-27T14:40:18.198Z,4.80
2018-05-27T14:42:44.436Z,4.83
2018-05-27T14:45:10.691Z,4.50
2018-05-27T14:47:36.941Z,4.70
2018-05-27T14:50:10.350Z,4.00
2018-05-27T14:52:52.741Z,4.63
2018-05-27T14:55:19.003Z,4.50
2018-05-27T14:57:45.434Z,4.27
2018-05-27T15:00:11.750Z,4.47
2018-05-27T15:02:38.817Z,4.67
2018-05-27T15:05:05.202Z,4.13
2018-05-27T15:07:31.489Z,17.70
2018-05-27T15:09:57.827Z,9.27
2018-05-27T15:12:24.083Z,4.30
2018-05-27T15:14:50.323Z,6.37
2018-05-27T15:17:16.522Z,4.87
2018-05-27T15:19:42.794Z,4.27
2018-05-27T15:22:09.049Z,4.20
2018-05-27T15:24:59.972Z,5.20
2018-05-27T15:27:26.244Z,4.20
2018-05-27T15:29:52.491Z,4.90
2018-05-27T15:32:19.571Z,4.30
2018-05-27T15:34:45.863Z,5.00
2018-05-27T15:37:12.172Z,4.13
2018-05-27T15:39:38.383Z,4.10
2018-05-27T15:42:04.650Z,4.60
2018-05-27T15:44:42.059Z,4.13
2018-05-27T15:47:09.048Z,4.27
2018-05-27T15:49:35.292Z,3.93
2018-05-27T15:52:01.618Z,4.53
2018-05-27T15:54:27.895Z,3.60
2018-05-27T15:56:55.225Z,4.90
2018-05-27T15:59:21.627Z,3.80
2018-05-27T16:01:47.898Z,3.97
2018-05-27T16:04:14.903Z,4.13
2018-05-27T16:06:41.202Z,4.50
2018-05-27T16:09:07.526Z,3.43
2018-05-27T16:11:33.817Z,3.80
2018-05-27T16:14:00.106Z,3.80
2018-05-27T16:16:26.341Z,3.83
2018-05-27T16:18:52.637Z,4.30
2018-05-27T16:21:18.971Z,3.80
2018-05-27T16:23:46.325Z,3.53
2018-05-27T16:26:13.675Z,4.03
2018-05-27T16:28:40.045Z,4.07
2018-05-27T16:31:06.325Z,3.90
2018-05-27T16:33:34.082Z,3.60
2018-05-27T16:36:00.603Z,4.30
2018-05-27T16:38:27.773Z,4.33
2018-05-27T16:40:55.259Z,4.10
2018-05-27T16:43:21.812Z,3.90
2018-05-27T16:45:48.391Z,4.07
2018-05-27T16:48:14.736Z,3.73
2018-05-27T16:50:41.134Z,4.50
2018-05-27T16:53:07.650Z,3.60
2018-05-27T16:55:34.055Z,3.67
2018-05-27T16:58:04.496Z,4.60
2018-05-27T17:00:35.965Z,4.07
2018-05-27T17:03:05.142Z,3.90
2018-05-27T17:05:31.743Z,4.23
2018-05-27T17:07:59.202Z,4.47
2018-05-27T17:10:33.201Z,3.73
2018-05-27T17:13:01.012Z,3.63
2018-05-27T17:15:28.593Z,4.07
2018-05-27T17:17:55.191Z,3.70
2018-05-27T17:20:23.333Z,4.07
2018-05-27T17:22:52.902Z,4.40
2018-05-27T17:25:20.307Z,4.53
2018-05-27T17:27:56.596Z,4.60
2018-05-27T17:30:23.165Z,4.00
2018-05-27T17:32:49.855Z,4.33
2018-05-27T17:35:26.658Z,3.90
2018-05-27T17:38:11.260Z,4.03
2018-05-27T17:40:38.337Z,3.63
2018-05-27T17:43:05.519Z,4.00
2018-05-27T17:45:34.418Z,4.50
2018-05-27T17:48:08.920Z,4.63
2018-05-27T17:50:35.470Z,4.03
2018-05-27T17:53:01.858Z,4.20
2018-05-27T17:55:28.982Z,4.70
2018-05-27T17:57:55.399Z,4.93
2018-05-27T18:00:32.736Z,4.17
2018-05-27T18:03:08.229Z,4.43
2018-05-27T18:05:36.787Z,4.03
2018-05-27T18:10:55.405Z,4.10
2018-05-27T18:13:25.202Z,4.80
2018-05-27T18:15:52.328Z,4.60
2018-05-27T18:18:18.736Z,4.50
2018-05-27T18:20:45.135Z,4.47
2018-05-27T18:23:12.179Z,5.70
2018-05-27T18:25:38.483Z,4.03
2018-05-27T18:28:04.716Z,4.30
2018-05-27T18:30:30.927Z,4.20
2018-05-27T18:32:57.194Z,4.73
2018-05-27T18:35:23.802Z,4.60
2018-05-27T18:37:50.291Z,4.97
2018-05-27T18:40:17.384Z,5.30
2018-05-27T18:42:43.730Z,4.90
2018-05-27T18:45:10.116Z,5.40
2018-05-27T18:47:36.375Z,4.83
2018-05-27T18:50:02.625Z,4.60
2018-05-27T18:52:28.859Z,5.00
2018-05-27T18:54:55.102Z,4.60
2018-05-27T18:57:21.318Z,4.60
2018-05-27T18:59:47.547Z,5.63
2018-05-27T19:02:13.841Z,5.43
2018-05-27T19:04:40.065Z,4.93
2018-05-27T19:07:06.329Z,4.90
2018-05-27T19:09:32.632Z,5.07
2018-05-27T19:11:58.876Z,5.73
2018-05-27T19:14:25.075Z,5.90
2018-05-27T19:16:51.274Z,5.50
2018-05-27T19:19:18.260Z,5.40
2018-05-27T19:21:44.464Z,4.80
2018-05-27T19:24:10.698Z,5.80
2018-05-27T19:26:36.913Z,5.20
2018-05-27T19:29:03.887Z,5.50
2018-05-27T19:31:30.124Z,5.57
2018-05-27T19:33:56.384Z,4.60
2018-05-27T19:36:22.605Z,5.77
2018-05-27T19:38:48.800Z,6.17
2018-05-27T19:41:15.007Z,5.90
2018-05-27T19:43:41.232Z,6.20
2018-05-27T19:46:07.519Z,5.80
2018-05-27T19:48:33.759Z,5.90
2018-05-27T19:50:59.991Z,5.10
2018-05-27T19:53:26.215Z,5.77
2018-05-27T19:55:52.428Z,5.83
2018-05-27T19:58:18.672Z,5.40
2018-05-27T20:00:49.470Z,5.80
2018-05-27T20:03:18.504Z,6.67
2018-05-27T20:09:05.911Z,5.93
2018-05-27T20:20:34.175Z,6.00
2018-05-27T20:23:02.073Z,5.70
2018-05-27T20:45:00.595Z,6.40
2018-05-27T20:47:27.120Z,6.53
2018-05-27T20:49:54.533Z,6.33
2018-05-27T20:52:20.933Z,5.80
2018-05-27T20:54:48.057Z,5.80
2018-05-27T20:57:14.380Z,5.47
2018-05-27T20:59:40.791Z,5.47
2018-05-27T21:02:07.164Z,5.77
2018-05-27T21:04:33.652Z,6.03
2018-05-27T21:07:00.042Z,5.70
2018-05-27T21:09:27.092Z,6.73
2018-05-27T21:11:53.424Z,6.10
2018-05-27T21:14:19.697Z,5.80
2018-05-27T21:16:46.869Z,5.33
2018-05-27T21:19:13.267Z,5.87
2018-05-27T21:21:39.977Z,6.07
2018-05-27T21:24:06.446Z,5.80
2018-05-27T23:27:04.413Z,6.63
2018-05-27T23:29:39.287Z,6.40
2018-05-27T23:32:06.286Z,6.80
2018-05-27T23:34:33.319Z,6.70
2018-05-27T23:37:00.220Z,6.70
2018-05-27T23:39:30.124Z,5.97
2018-05-27T23:41:57.236Z,5.97
2018-05-27T23:44:23.751Z,5.93
2018-05-27T23:46:50.939Z,5.77
2018-05-27T23:49:17.649Z,6.20
2018-05-27T23:51:44.288Z,5.80
2018-05-27T23:57:05.403Z,7.20
2018-05-27T23:59:31.833Z,6.20
